Time;durP1;ratioP1;P1;durP2;ratioP2;P2;SDS_P1;SDS_P2;PMS_P1;PMS_P2;Temp;Humidity;BMP_temperature;BMP_pressure;BME280_temperature;BME280_humidity;BME280_pressure;Samples;Min_cycle;Max_cycle;Signal;HPM_P1;HPM_P2
2023/08/23 00:01:13;;;;;;;10.18;8.10;;;;;;;;;;5032095;28;20045;-74
2023/08/23 00:03:39;;;;;;;8.48;7.68;;;;;;;;;;5027270;28;20068;-74
2023/08/23 00:06:05;;;;;;;8.90;8.07;;;;;;;;;;5016231;28;20401;-74
2023/08/23 00:08:37;;;;;;;8.82;7.95;;;;;;;;;;5012625;28;20044;-74
2023/08/23 00:11:03;;;;;;;9.32;8.00;;;;;;;;;;5032665;28;20068;-74
2023/08/23 00:13:29;;;;;;;10.60;7.88;;;;;;;;;;5012939;28;20040;-74
2023/08/23 00:15:55;;;;;;;11.88;7.70;;;;;;;;;;5015187;28;20036;-73
2023/08/23 00:18:21;;;;;;;10.15;8.98;;;;;;;;;;5013520;28;20520;-73
2023/08/23 00:20:47;;;;;;;14.48;8.57;;;;;;;;;;5016362;28;20188;-74
2023/08/23 00:23:13;;;;;;;10.50;7.80;;;;;;;;;;5030990;28;20112;-74
2023/08/23 00:25:39;;;;;;;10.48;7.57;;;;;;;;;;4994186;28;20579;-74
2023/08/23 00:28:06;;;;;;;19.10;8.43;;;;;;;;;;5016519;28;20085;-74
2023/08/23 00:30:32;;;;;;;43.42;8.23;;;;;;;;;;4993506;28;20209;-74
2023/08/23 00:32:58;;;;;;;85.72;8.57;;;;;;;;;;5009863;28;20040;-74
2023/08/23 00:35:24;;;;;;;149.23;8.55;;;;;;;;;;4989853;28;20048;-74
2023/08/23 00:37:50;;;;;;;19.55;8.38;;;;;;;;;;5010879;28;22517;-74
2023/08/23 00:40:16;;;;;;;12.80;7.57;;;;;;;;;;5011331;28;20053;-74
2023/08/23 00:42:42;;;;;;;8.85;7.75;;;;;;;;;;5014731;28;20056;-74
2023/08/23 00:45:08;;;;;;;10.65;8.60;;;;;;;;;;5012453;28;20052;-74
2023/08/23 00:47:35;;;;;;;9.63;7.85;;;;;;;;;;5000488;28;20500;-74
2023/08/23 00:50:01;;;;;;;11.18;8.18;;;;;;;;;;5002859;28;20661;-74
2023/08/23 00:52:27;;;;;;;11.48;8.65;;;;;;;;;;5014728;28;20081;-73
2023/08/23 00:54:54;;;;;;;10.32;9.07;;;;;;;;;;5035005;28;20287;-74
2023/08/23 00:57:21;;;;;;;10.38;9.27;;;;;;;;;;5034837;28;20036;-74
2023/08/23 00:59:47;;;;;;;9.75;8.13;;;;;;;;;;5019080;28;20040;-74
2023/08/23 01:02:13;;;;;;;14.15;9.25;;;;;;;;;;5015302;28;20127;-74
2023/08/23 01:04:39;;;;;;;12.02;9.23;;;;;;;;;;5014125;28;20551;-73
2023/08/23 01:07:13;;;;;;;12.38;9.27;;;;;;;;;;5033577;28;20168;-73
2023/08/23 01:09:48;;;;;;;12.85;9.95;;;;;;;;;;5006813;28;20532;-73
2023/08/23 01:12:22;;;;;;;12.65;9.93;;;;;;;;;;5013950;28;20132;-73
2023/08/23 01:14:58;;;;;;;13.52;9.45;;;;;;;;;;5014197;28;20063;-73
2023/08/23 01:17:25;;;;;;;9.45;8.43;;;;;;;;;;5032909;28;20074;-73
2023/08/23 01:19:51;;;;;;;8.57;7.68;;;;;;;;;;5033051;28;20044;-73
2023/08/23 01:22:18;;;;;;;12.20;9.10;;;;;;;;;;5032569;28;20617;-74
2023/08/23 01:24:45;;;;;;;12.68;11.07;;;;;;;;;;5000696;28;20049;-74
2023/08/23 01:27:11;;;;;;;11.85;9.98;;;;;;;;;;5031322;28;22534;-74
2023/08/23 01:29:37;;;;;;;15.38;9.95;;;;;;;;;;5034557;28;20051;-74
2023/08/23 01:32:11;;;;;;;12.30;10.45;;;;;;;;;;5013822;28;20499;-74
2023/08/23 01:34:39;;;;;;;14.25;10.20;;;;;;;;;;5035163;28;20496;-74
2023/08/23 01:37:06;;;;;;;13.13;11.10;;;;;;;;;;5015789;28;20441;-74
2023/08/23 01:39:33;;;;;;;13.05;10.38;;;;;;;;;;5031688;28;20623;-74
2023/08/23 01:41:59;;;;;;;12.45;11.15;;;;;;;;;;5032212;28;20041;-73
2023/08/23 01:44:25;;;;;;;14.20;9.85;;;;;;;;;;5017240;28;20044;-73
2023/08/23 01:46:51;;;;;;;15.73;10.93;;;;;;;;;;5032719;28;20122;-73
2023/08/23 01:49:20;;;;;;;13.63;10.75;;;;;;;;;;5031120;28;20787;-73
2023/08/23 01:51:46;;;;;;;11.75;10.15;;;;;;;;;;5031086;28;20094;-73
2023/08/23 01:54:12;;;;;;;11.65;10.18;;;;;;;;;;5033610;28;20528;-73
2023/08/23 01:56:38;;;;;;;12.02;9.43;;;;;;;;;;5032900;28;20064;-73
2023/08/23 01:59:05;;;;;;;13.77;9.70;;;;;;;;;;5012990;28;20048;-74
2023/08/23 02:01:31;;;;;;;10.35;8.57;;;;;;;;;;5014612;28;20105;-74
2023/08/23 02:03:57;;;;;;;8.70;7.43;;;;;;;;;;5014404;28;20048;-73
2023/08/23 02:06:23;;;;;;;8.40;7.38;;;;;;;;;;4994089;28;21793;-74
2023/08/23 02:08:51;;;;;;;13.82;7.28;;;;;;;;;;5012277;28;20405;-74
2023/08/23 02:11:17;;;;;;;21.35;8.40;;;;;;;;;;5008598;28;20141;-74
2023/08/23 02:13:43;;;;;;;58.08;10.23;;;;;;;;;;5012810;28;20037;-74
2023/08/23 02:16:09;;;;;;;31.45;9.68;;;;;;;;;;5011093;28;20041;-73
2023/08/23 02:18:35;;;;;;;183.23;11.18;;;;;;;;;;5010429;28;20106;-73
2023/08/23 02:21:01;;;;;;;23.70;8.07;;;;;;;;;;5011185;28;20058;-73
2023/08/23 02:23:27;;;;;;;13.63;7.45;;;;;;;;;;5026745;28;20045;-73
2023/08/23 02:25:53;;;;;;;66.03;7.25;;;;;;;;;;4996403;28;20045;-73
2023/08/23 02:28:19;;;;;;;255.00;10.95;;;;;;;;;;5015147;28;20052;-73
2023/08/23 02:30:45;;;;;;;60.70;6.50;;;;;;;;;;5014064;28;20041;-73
2023/08/23 02:33:12;;;;;;;63.03;5.85;;;;;;;;;;4997885;28;20478;-74
2023/08/23 02:35:44;;;;;;;33.60;5.35;;;;;;;;;;5014582;28;20488;-73
2023/08/23 02:38:10;;;;;;;7.97;5.28;;;;;;;;;;5014797;28;20056;-73
2023/08/23 02:40:40;;;;;;;53.55;5.55;;;;;;;;;;5015253;28;20055;-73
2023/08/23 02:43:06;;;;;;;51.05;5.38;;;;;;;;;;5013350;28;20040;-73
2023/08/23 02:45:32;;;;;;;45.03;4.82;;;;;;;;;;5014740;28;20068;-74
2023/08/23 02:47:58;;;;;;;50.97;4.13;;;;;;;;;;4998911;28;20131;-73
2023/08/23 02:50:24;;;;;;;62.15;5.30;;;;;;;;;;5015000;28;20160;-73
2023/08/23 02:52:50;;;;;;;44.83;4.30;;;;;;;;;;5016635;28;20123;-73
2023/08/23 02:55:16;;;;;;;76.38;5.05;;;;;;;;;;5020025;28;20510;-73
2023/08/23 02:57:43;;;;;;;72.10;5.97;;;;;;;;;;5015348;28;20045;-73
2023/08/23 03:00:09;;;;;;;74.00;5.28;;;;;;;;;;5017144;28;20037;-73
2023/08/23 03:02:35;;;;;;;79.57;5.78;;;;;;;;;;5014079;28;20115;-73
2023/08/23 03:05:01;;;;;;;70.47;5.70;;;;;;;;;;5031411;28;20065;-73
2023/08/23 03:07:27;;;;;;;110.82;7.35;;;;;;;;;;5015026;28;20053;-74
2023/08/23 03:09:53;;;;;;;171.85;8.50;;;;;;;;;;5014649;28;20164;-73
2023/08/23 03:12:19;;;;;;;114.13;7.63;;;;;;;;;;5015218;28;20037;-73
2023/08/23 03:14:45;;;;;;;100.57;7.90;;;;;;;;;;5015129;28;20048;-73
2023/08/23 03:17:11;;;;;;;181.50;9.35;;;;;;;;;;5014048;28;20065;-73
2023/08/23 03:19:38;;;;;;;221.38;10.23;;;;;;;;;;5015357;28;20587;-73
2023/08/23 03:22:04;;;;;;;196.93;10.10;;;;;;;;;;5013622;28;20053;-73
2023/08/23 03:24:30;;;;;;;176.18;10.88;;;;;;;;;;5013635;28;20041;-73
2023/08/23 03:26:56;;;;;;;177.70;10.38;;;;;;;;;;5011901;28;20107;-73
2023/08/23 03:29:22;;;;;;;113.25;9.73;;;;;;;;;;5014268;28;20068;-73
2023/08/23 03:31:48;;;;;;;107.85;9.55;;;;;;;;;;5010121;28;20144;-73
2023/08/23 03:34:14;;;;;;;122.20;10.20;;;;;;;;;;5015780;28;20051;-73
2023/08/23 03:36:40;;;;;;;128.57;9.45;;;;;;;;;;5011437;28;21367;-73
2023/08/23 03:39:06;;;;;;;98.63;10.50;;;;;;;;;;5013016;28;20176;-73
2023/08/23 03:41:32;;;;;;;72.50;10.32;;;;;;;;;;5012959;28;20099;-73
2023/08/23 03:43:58;;;;;;;63.90;10.60;;;;;;;;;;4993453;28;20096;-73
2023/08/23 03:46:25;;;;;;;78.28;10.57;;;;;;;;;;4997402;28;20045;-73
2023/08/23 03:48:51;;;;;;;30.00;9.63;;;;;;;;;;5011625;28;20473;-73
2023/08/23 03:51:17;;;;;;;44.10;10.32;;;;;;;;;;4991904;28;20049;-73
2023/08/23 03:53:44;;;;;;;38.35;10.45;;;;;;;;;;4994800;28;20049;-73
2023/08/23 03:56:10;;;;;;;34.22;10.82;;;;;;;;;;4993690;28;20037;-73
2023/08/23 03:58:36;;;;;;;30.13;9.88;;;;;;;;;;5014211;28;20041;-73
2023/08/23 04:01:02;;;;;;;27.42;10.48;;;;;;;;;;5012585;28;21924;-73
2023/08/23 04:03:28;;;;;;;10.45;8.65;;;;;;;;;;5007843;28;20131;-74
2023/08/23 04:05:54;;;;;;;17.83;8.95;;;;;;;;;;5007209;28;20136;-74
2023/08/23 04:08:20;;;;;;;19.60;9.38;;;;;;;;;;5012136;28;20056;-73
2023/08/23 04:10:50;;;;;;;20.63;10.23;;;;;;;;;;5007116;28;20054;-73
2023/08/23 04:13:16;;;;;;;18.27;9.95;;;;;;;;;;5012438;28;20049;-73
2023/08/23 04:15:43;;;;;;;17.02;10.23;;;;;;;;;;5009434;28;20056;-73
2023/08/23 04:18:09;;;;;;;13.63;10.27;;;;;;;;;;5007125;28;20565;-73
2023/08/23 04:20:35;;;;;;;18.67;10.48;;;;;;;;;;4989919;28;20041;-73
2023/08/23 04:23:01;;;;;;;17.70;10.25;;;;;;;;;;5009363;28;20072;-73
2023/08/23 04:25:27;;;;;;;23.23;11.73;;;;;;;;;;5011222;28;20735;-73
2023/08/23 04:27:53;;;;;;;15.27;11.93;;;;;;;;;;5011119;28;20046;-73
2023/08/23 04:30:19;;;;;;;13.68;12.02;;;;;;;;;;5012513;28;20125;-74
2023/08/23 04:32:46;;;;;;;18.67;13.07;;;;;;;;;;4999887;28;21975;-74
2023/08/23 04:35:12;;;;;;;16.05;12.07;;;;;;;;;;5012679;28;20083;-74
2023/08/23 04:37:38;;;;;;;24.65;12.43;;;;;;;;;;5010973;28;20033;-73
2023/08/23 04:40:07;;;;;;;17.13;13.02;;;;;;;;;;5014506;28;20824;-73
2023/08/23 04:42:33;;;;;;;16.52;13.27;;;;;;;;;;5010835;28;20033;-73
2023/08/23 04:45:00;;;;;;;18.10;12.70;;;;;;;;;;4990804;28;20493;-74
2023/08/23 04:47:27;;;;;;;31.60;13.80;;;;;;;;;;5008999;28;20999;-73
2023/08/23 04:49:54;;;;;;;20.40;14.80;;;;;;;;;;5005889;28;20073;-73
2023/08/23 04:52:20;;;;;;;18.02;13.48;;;;;;;;;;5007096;28;21330;-74
2023/08/23 04:54:46;;;;;;;23.60;13.32;;;;;;;;;;5006741;28;20052;-74
2023/08/23 04:57:13;;;;;;;22.63;12.85;;;;;;;;;;5001986;28;20099;-73
2023/08/23 04:59:39;;;;;;;32.08;13.93;;;;;;;;;;5004157;28;20496;-73
2023/08/23 05:02:05;;;;;;;29.80;15.48;;;;;;;;;;5006608;28;20126;-73
2023/08/23 05:04:31;;;;;;;24.33;14.52;;;;;;;;;;4991334;28;20045;-73
2023/08/23 05:06:57;;;;;;;24.02;15.57;;;;;;;;;;5020947;28;20743;-73
2023/08/23 05:09:23;;;;;;;22.80;15.93;;;;;;;;;;5011711;28;20072;-73
2023/08/23 05:11:49;;;;;;;26.05;15.82;;;;;;;;;;5014048;28;20051;-73
2023/08/23 05:14:15;;;;;;;28.95;16.67;;;;;;;;;;4995259;28;20038;-73
2023/08/23 05:16:41;;;;;;;23.75;17.80;;;;;;;;;;5025571;28;22230;-73
2023/08/23 05:19:07;;;;;;;26.10;17.20;;;;;;;;;;5026085;28;20052;-73
2023/08/23 05:21:33;;;;;;;26.73;17.40;;;;;;;;;;5030428;28;20044;-73
2023/08/23 05:23:59;;;;;;;25.80;17.90;;;;;;;;;;4994535;28;20119;-73
2023/08/23 05:26:25;;;;;;;28.48;17.15;;;;;;;;;;5030488;28;20045;-73
2023/08/23 05:28:52;;;;;;;23.38;15.35;;;;;;;;;;5014078;28;20045;-73
2023/08/23 05:31:18;;;;;;;29.92;16.00;;;;;;;;;;5029657;28;20084;-73
2023/08/23 05:33:44;;;;;;;25.70;15.63;;;;;;;;;;5012054;28;20127;-73
2023/08/23 05:36:10;;;;;;;29.98;17.77;;;;;;;;;;5021377;28;20036;-73
2023/08/23 05:38:36;;;;;;;33.33;16.38;;;;;;;;;;4985127;28;20492;-73
2023/08/23 05:41:02;;;;;;;30.10;17.77;;;;;;;;;;5017407;28;20179;-73
2023/08/23 05:43:28;;;;;;;27.40;17.23;;;;;;;;;;5016666;28;20049;-72
2023/08/23 05:45:56;;;;;;;27.10;18.05;;;;;;;;;;5015945;28;20052;-73
2023/08/23 05:48:22;;;;;;;28.15;17.63;;;;;;;;;;5015161;28;20056;-73
2023/08/23 05:50:49;;;;;;;30.00;18.33;;;;;;;;;;5017434;28;20105;-73
2023/08/23 05:53:21;;;;;;;33.22;19.38;;;;;;;;;;5016489;28;20109;-73
2023/08/23 05:55:48;;;;;;;30.38;18.17;;;;;;;;;;5030414;28;20067;-73
2023/08/23 05:58:15;;;;;;;30.50;18.38;;;;;;;;;;5011957;28;20041;-73
2023/08/23 06:00:41;;;;;;;28.45;19.45;;;;;;;;;;5003894;28;20091;-73
2023/08/23 06:03:07;;;;;;;32.80;20.02;;;;;;;;;;5010975;28;20059;-73
2023/08/23 06:05:33;;;;;;;30.92;18.98;;;;;;;;;;5011113;28;20044;-73
2023/08/23 06:08:00;;;;;;;29.38;18.15;;;;;;;;;;5013993;28;20045;-73
2023/08/23 06:10:26;;;;;;;31.67;19.50;;;;;;;;;;5016186;28;20044;-73
2023/08/23 06:12:52;;;;;;;30.13;19.05;;;;;;;;;;5030978;28;21022;-73
2023/08/23 06:15:18;;;;;;;31.48;18.58;;;;;;;;;;5027552;28;20398;-73
2023/08/23 06:17:44;;;;;;;35.15;19.98;;;;;;;;;;4987259;28;20097;-73
2023/08/23 06:20:10;;;;;;;35.17;19.88;;;;;;;;;;4992055;28;20630;-73
2023/08/23 06:22:37;;;;;;;31.92;19.92;;;;;;;;;;5028835;28;20037;-73
2023/08/23 06:25:05;;;;;;;35.95;21.92;;;;;;;;;;5031845;28;20140;-73
2023/08/23 06:27:31;;;;;;;33.13;22.17;;;;;;;;;;5014491;28;20122;-73
2023/08/23 06:29:57;;;;;;;29.10;22.35;;;;;;;;;;5014510;28;20055;-73
2023/08/23 06:32:25;;;;;;;31.95;23.02;;;;;;;;;;5017782;28;20044;-73
2023/08/23 06:34:53;;;;;;;34.40;22.63;;;;;;;;;;5014741;28;20041;-73
2023/08/23 06:37:19;;;;;;;31.48;23.33;;;;;;;;;;5031688;28;20068;-73
2023/08/23 06:39:45;;;;;;;37.30;22.95;;;;;;;;;;5028895;28;20131;-73
2023/08/23 06:42:14;;;;;;;38.50;24.08;;;;;;;;;;5015235;28;20080;-73
2023/08/23 06:44:40;;;;;;;36.67;23.52;;;;;;;;;;5031407;28;20049;-74
2023/08/23 06:47:07;;;;;;;36.50;23.08;;;;;;;;;;5017612;28;20065;-74
2023/08/23 06:49:33;;;;;;;33.80;21.38;;;;;;;;;;5016573;28;20162;-73
2023/08/23 06:51:59;;;;;;;34.33;21.38;;;;;;;;;;5034478;28;20489;-73
2023/08/23 06:54:25;;;;;;;35.97;22.40;;;;;;;;;;5014027;28;20044;-74
2023/08/23 06:56:51;;;;;;;31.75;20.52;;;;;;;;;;5035204;28;20052;-73
2023/08/23 06:59:17;;;;;;;33.05;21.10;;;;;;;;;;5032842;28;20496;-73
2023/08/23 07:01:43;;;;;;;36.63;20.70;;;;;;;;;;5031692;28;20119;-73
2023/08/23 07:04:09;;;;;;;28.63;20.60;;;;;;;;;;5030830;28;20049;-73
2023/08/23 07:06:35;;;;;;;30.77;20.83;;;;;;;;;;5032821;28;20672;-73
2023/08/23 07:09:01;;;;;;;29.70;21.15;;;;;;;;;;5030137;28;20144;-73
2023/08/23 07:11:27;;;;;;;26.33;19.25;;;;;;;;;;5035809;28;20045;-73
2023/08/23 07:13:53;;;;;;;30.60;18.77;;;;;;;;;;5016891;28;20671;-73
2023/08/23 07:16:19;;;;;;;39.00;20.15;;;;;;;;;;5036555;28;20032;-73
2023/08/23 07:18:46;;;;;;;29.48;19.48;;;;;;;;;;5000339;28;22039;-73
2023/08/23 07:21:12;;;;;;;30.45;19.88;;;;;;;;;;5015298;28;20041;-73
2023/08/23 07:23:38;;;;;;;22.98;16.92;;;;;;;;;;5031395;28;20043;-73
2023/08/23 07:26:04;;;;;;;27.35;18.45;;;;;;;;;;5031169;28;20037;-74
2023/08/23 07:28:30;;;;;;;28.83;18.25;;;;;;;;;;5012329;28;20153;-73
2023/08/23 07:30:59;;;;;;;23.63;16.38;;;;;;;;;;5032648;28;20048;-73
2023/08/23 07:33:25;;;;;;;19.02;15.65;;;;;;;;;;5013797;28;20129;-74
2023/08/23 07:35:58;;;;;;;20.52;15.60;;;;;;;;;;5034052;28;20040;-74
2023/08/23 07:38:24;;;;;;;26.40;17.05;;;;;;;;;;5020116;28;20044;-74
2023/08/23 07:40:50;;;;;;;21.50;16.58;;;;;;;;;;5032468;28;20048;-74
2023/08/23 07:43:19;;;;;;;21.77;16.30;;;;;;;;;;5032061;28;20040;-74
2023/08/23 07:45:47;;;;;;;20.08;15.35;;;;;;;;;;5030914;28;20110;-74
2023/08/23 07:48:14;;;;;;;20.08;15.48;;;;;;;;;;5011233;28;20101;-74
2023/08/23 07:50:40;;;;;;;26.38;16.17;;;;;;;;;;5032582;28;20037;-75
2023/08/23 07:53:06;;;;;;;27.85;15.70;;;;;;;;;;5013646;28;20075;-75
2023/08/23 07:55:32;;;;;;;37.85;16.70;;;;;;;;;;5031961;28;20048;-77
2023/08/23 07:58:00;;;;;;;23.30;14.90;;;;;;;;;;5021094;28;20164;-75
2023/08/23 08:00:26;;;;;;;19.10;15.18;;;;;;;;;;5034367;28;20051;-75
2023/08/23 08:02:52;;;;;;;18.67;15.02;;;;;;;;;;5031915;28;20047;-74
2023/08/23 08:05:18;;;;;;;22.27;15.82;;;;;;;;;;5032705;28;20052;-75
2023/08/23 08:07:44;;;;;;;37.25;16.65;;;;;;;;;;4996860;28;20057;-75
2023/08/23 08:10:10;;;;;;;21.73;15.82;;;;;;;;;;5013080;28;20045;-74
2023/08/23 08:12:36;;;;;;;18.42;15.30;;;;;;;;;;5016943;28;20049;-74
2023/08/23 08:15:06;;;;;;;20.63;16.45;;;;;;;;;;5017858;28;20037;-74
2023/08/23 08:17:32;;;;;;;19.95;14.82;;;;;;;;;;5012559;28;20497;-74
2023/08/23 08:19:58;;;;;;;22.70;16.52;;;;;;;;;;5015501;28;20142;-74
2023/08/23 08:22:27;;;;;;;23.15;15.85;;;;;;;;;;5013876;28;20040;-75
2023/08/23 08:24:53;;;;;;;19.95;14.98;;;;;;;;;;5011514;28;20136;-75
2023/08/23 08:27:19;;;;;;;21.25;15.68;;;;;;;;;;5016658;28;20710;-75
2023/08/23 08:29:45;;;;;;;18.75;13.23;;;;;;;;;;5014606;28;20145;-75
2023/08/23 08:32:11;;;;;;;19.17;14.18;;;;;;;;;;4997743;28;20060;-75
2023/08/23 08:34:37;;;;;;;16.38;13.32;;;;;;;;;;5014164;28;20220;-75
2023/08/23 08:37:04;;;;;;;21.85;13.38;;;;;;;;;;5013046;28;20041;-75
2023/08/23 08:39:30;;;;;;;15.50;12.75;;;;;;;;;;5012233;28;20634;-75
2023/08/23 08:41:57;;;;;;;23.70;13.70;;;;;;;;;;4994903;28;20059;-73
2023/08/23 08:44:23;;;;;;;19.85;12.48;;;;;;;;;;5014904;28;20693;-75
2023/08/23 08:46:49;;;;;;;15.40;13.25;;;;;;;;;;5013681;28;20159;-75
2023/08/23 08:49:15;;;;;;;13.90;12.45;;;;;;;;;;5010907;28;20037;-75
2023/08/23 08:51:42;;;;;;;16.40;12.88;;;;;;;;;;5011723;28;20045;-76
2023/08/23 08:54:09;;;;;;;17.15;13.20;;;;;;;;;;5006378;28;20489;-76
2023/08/23 08:56:36;;;;;;;16.38;11.90;;;;;;;;;;5015235;28;20048;-76
2023/08/23 08:59:02;;;;;;;14.30;11.32;;;;;;;;;;5016280;28;20107;-77
2023/08/23 09:01:31;;;;;;;14.02;12.40;;;;;;;;;;5015685;28;20049;-77
2023/08/23 09:03:58;;;;;;;13.98;11.88;;;;;;;;;;5016012;28;20044;-76
2023/08/23 09:06:24;;;;;;;635.72;99.32;;;;;;;;;;5015784;28;20052;-78
2023/08/23 09:08:50;;;;;;;1064.55;162.50;;;;;;;;;;5019753;28;20262;-77
2023/08/23 09:11:16;;;;;;;19.50;12.35;;;;;;;;;;5020201;28;20417;-77
2023/08/23 09:13:42;;;;;;;15.48;10.20;;;;;;;;;;5021959;28;20041;-77
2023/08/23 09:16:08;;;;;;;21.98;9.88;;;;;;;;;;5020016;28;20037;-78
2023/08/23 09:18:35;;;;;;;14.55;8.00;;;;;;;;;;5019063;28;20060;-76
2023/08/23 09:21:01;;;;;;;14.73;9.02;;;;;;;;;;5019124;28;20443;-78
2023/08/23 09:23:34;;;;;;;13.68;9.05;;;;;;;;;;5020316;28;20400;-78
2023/08/23 09:26:00;;;;;;;11.80;8.97;;;;;;;;;;5002953;28;20083;-77
2023/08/23 09:28:28;;;;;;;12.45;9.20;;;;;;;;;;5019720;28;20319;-80
2023/08/23 09:30:55;;;;;;;13.13;7.47;;;;;;;;;;5005227;28;20049;-78
2023/08/23 09:33:21;;;;;;;11.98;8.27;;;;;;;;;;5019179;28;20037;-76
2023/08/23 09:35:48;;;;;;;12.43;7.80;;;;;;;;;;5017139;28;20052;-75
2023/08/23 09:38:18;;;;;;;12.05;7.28;;;;;;;;;;5018604;28;20111;-76
2023/08/23 09:40:45;;;;;;;10.65;7.60;;;;;;;;;;5019860;28;20416;-78
2023/08/23 09:43:12;;;;;;;11.48;8.30;;;;;;;;;;5020421;28;20624;-78
2023/08/23 09:45:38;;;;;;;13.88;8.18;;;;;;;;;;5021000;28;20669;-78
2023/08/23 09:48:06;;;;;;;21.25;8.35;;;;;;;;;;5015893;28;20772;-77
2023/08/23 09:50:32;;;;;;;11.00;8.43;;;;;;;;;;4999839;28;20091;-77
2023/08/23 09:53:01;;;;;;;14.00;9.48;;;;;;;;;;5015368;28;20041;-76
2023/08/23 09:55:28;;;;;;;10.57;6.78;;;;;;;;;;5017109;28;20211;-75
2023/08/23 09:57:54;;;;;;;24.17;7.72;;;;;;;;;;5017429;28;20070;-76
2023/08/23 10:00:22;;;;;;;8.30;6.55;;;;;;;;;;5012294;28;20041;-73
2023/08/23 10:02:48;;;;;;;7.90;5.45;;;;;;;;;;5015664;28;20033;-73
2023/08/23 10:05:14;;;;;;;9.02;6.38;;;;;;;;;;5009482;28;20040;-74
2023/08/23 10:07:43;;;;;;;8.68;5.43;;;;;;;;;;5006485;28;20049;-74
2023/08/23 10:10:10;;;;;;;22.75;6.20;;;;;;;;;;5009201;28;20465;-74
2023/08/23 10:12:38;;;;;;;8.02;5.30;;;;;;;;;;5008668;28;20037;-74
2023/08/23 10:15:05;;;;;;;15.00;5.90;;;;;;;;;;5010143;28;20045;-75
2023/08/23 10:17:32;;;;;;;10.27;6.07;;;;;;;;;;5011913;28;20537;-75
2023/08/23 10:19:58;;;;;;;10.85;6.35;;;;;;;;;;5017072;28;20091;-75
2023/08/23 10:22:24;;;;;;;8.63;6.07;;;;;;;;;;5015494;28;20049;-76
2023/08/23 10:24:50;;;;;;;9.52;4.63;;;;;;;;;;5008974;28;20393;-74
2023/08/23 10:27:17;;;;;;;9.77;5.72;;;;;;;;;;5017219;28;20066;-73
2023/08/23 10:29:50;;;;;;;20.20;6.95;;;;;;;;;;5018153;28;20041;-73
2023/08/23 10:32:17;;;;;;;7.57;5.50;;;;;;;;;;5010790;28;20053;-75
2023/08/23 10:34:43;;;;;;;14.02;5.93;;;;;;;;;;5010754;28;20045;-74
2023/08/23 10:37:27;;;;;;;9.43;6.57;;;;;;;;;;5008798;28;20394;-74
2023/08/23 10:39:54;;;;;;;8.77;6.90;;;;;;;;;;5009896;28;20587;-74
2023/08/23 10:42:21;;;;;;;9.32;5.90;;;;;;;;;;5014170;28;20068;-74
2023/08/23 10:44:53;;;;;;;7.78;3.42;;;;;;;;;;5015711;28;20745;-74
2023/08/23 10:47:19;;;;;;;9.23;4.97;;;;;;;;;;5014595;28;20044;-74
2023/08/23 10:49:46;;;;;;;9.73;5.57;;;;;;;;;;5015677;28;20084;-74
2023/08/23 10:52:13;;;;;;;11.88;5.90;;;;;;;;;;5011656;28;20037;-75
2023/08/23 10:54:40;;;;;;;7.65;5.95;;;;;;;;;;5016323;28;20045;-83
2023/08/23 10:57:06;;;;;;;7.32;4.13;;;;;;;;;;5012478;28;20041;-81
2023/08/23 10:59:32;;;;;;;8.68;5.13;;;;;;;;;;5013530;28;20056;-82
2023/08/23 11:01:58;;;;;;;10.90;4.90;;;;;;;;;;5015876;28;20063;-85
2023/08/23 11:04:25;;;;;;;15.07;6.30;;;;;;;;;;5013233;28;20599;-80
2023/08/23 11:06:51;;;;;;;10.68;6.13;;;;;;;;;;5011832;28;20045;-76
2023/08/23 11:09:17;;;;;;;9.80;5.63;;;;;;;;;;5014624;28;20425;-75
2023/08/23 11:11:44;;;;;;;8.93;5.57;;;;;;;;;;5015445;28;20102;-78
2023/08/23 11:14:10;;;;;;;9.82;6.00;;;;;;;;;;5011288;28;20137;-80
2023/08/23 11:16:36;;;;;;;13.98;7.05;;;;;;;;;;5009941;28;20052;-77
2023/08/23 11:19:03;;;;;;;19.40;5.28;;;;;;;;;;4994699;28;20151;-77
2023/08/23 11:21:33;;;;;;;8.55;5.53;;;;;;;;;;5012784;28;20048;-80
2023/08/23 11:24:06;;;;;;;8.48;5.38;;;;;;;;;;4991156;28;20052;-79
2023/08/23 11:26:33;;;;;;;5.10;3.50;;;;;;;;;;5012771;28;20057;-78
2023/08/23 11:29:00;;;;;;;10.25;4.47;;;;;;;;;;5008019;28;20319;-78
2023/08/23 11:31:27;;;;;;;8.68;4.55;;;;;;;;;;5011851;28;20090;-76
2023/08/23 11:33:53;;;;;;;10.55;4.13;;;;;;;;;;5014140;28;20052;-76
2023/08/23 11:36:20;;;;;;;6.35;3.90;;;;;;;;;;5014213;28;20139;-78
2023/08/23 11:38:50;;;;;;;10.40;4.40;;;;;;;;;;5013077;28;20132;-77
2023/08/23 11:41:26;;;;;;;7.85;5.00;;;;;;;;;;5012394;28;20490;-81
2023/08/23 11:43:53;;;;;;;9.77;4.38;;;;;;;;;;5014081;28;20057;-81
2023/08/23 11:46:28;;;;;;;9.20;4.60;;;;;;;;;;5015288;28;20548;-80
2023/08/23 11:48:57;;;;;;;7.35;4.45;;;;;;;;;;5005783;28;20061;-77
2023/08/23 11:51:23;;;;;;;9.90;4.30;;;;;;;;;;5010925;28;20049;-80
2023/08/23 11:53:50;;;;;;;7.43;4.15;;;;;;;;;;4991540;28;20041;-80
2023/08/23 11:56:16;;;;;;;7.28;3.78;;;;;;;;;;5009232;28;20049;-79
2023/08/23 11:58:42;;;;;;;8.70;4.50;;;;;;;;;;5012070;28;20068;-79
2023/08/23 12:01:10;;;;;;;7.72;5.00;;;;;;;;;;5009283;28;20130;-81
2023/08/23 12:03:36;;;;;;;12.13;5.38;;;;;;;;;;5010781;28;20049;-83
2023/08/23 12:06:03;;;;;;;7.35;4.93;;;;;;;;;;5010209;28;20651;-78
2023/08/23 12:08:29;;;;;;;9.93;4.47;;;;;;;;;;5013963;28;20795;-79
2023/08/23 12:10:55;;;;;;;8.85;3.90;;;;;;;;;;5015885;28;20083;-76
2023/08/23 12:13:21;;;;;;;10.43;3.80;;;;;;;;;;5031733;28;20041;-75
2023/08/23 12:15:47;;;;;;;8.05;3.67;;;;;;;;;;5017535;28;20131;-80
2023/08/23 12:18:13;;;;;;;5.38;3.50;;;;;;;;;;5030244;28;21648;-79
2023/08/23 12:20:39;;;;;;;8.60;3.83;;;;;;;;;;5032456;28;20273;-80
2023/08/23 12:23:06;;;;;;;5.93;3.78;;;;;;;;;;5034019;28;20439;-76
2023/08/23 12:25:32;;;;;;;10.48;4.18;;;;;;;;;;5030728;28;20131;-81
2023/08/23 12:27:58;;;;;;;8.40;4.20;;;;;;;;;;5034164;28;20666;-76
2023/08/23 12:30:25;;;;;;;28.25;5.32;;;;;;;;;;5034061;28;20082;-76
2023/08/23 12:32:51;;;;;;;13.00;4.70;;;;;;;;;;5034193;28;20080;-84
2023/08/23 12:35:18;;;;;;;7.00;4.00;;;;;;;;;;5032064;28;20067;-79
2023/08/23 12:37:44;;;;;;;102.45;9.85;;;;;;;;;;5032577;28;20472;-79
2023/08/23 12:40:11;;;;;;;12.77;4.63;;;;;;;;;;5032857;28;20052;-80
2023/08/23 12:42:37;;;;;;;10.10;4.57;;;;;;;;;;5016663;28;20052;-79
2023/08/23 12:45:04;;;;;;;7.90;3.88;;;;;;;;;;5021909;28;20045;-80
2023/08/23 12:47:30;;;;;;;6.03;3.97;;;;;;;;;;5037159;28;20047;-74
2023/08/23 12:49:56;;;;;;;6.43;3.88;;;;;;;;;;5037784;28;20045;-76
2023/08/23 12:52:23;;;;;;;7.22;4.47;;;;;;;;;;5018713;28;20689;-74
2023/08/23 12:54:49;;;;;;;5.82;3.40;;;;;;;;;;5018040;28;20494;-73
2023/08/23 12:57:15;;;;;;;6.47;3.40;;;;;;;;;;5018158;28;20051;-72
2023/08/23 12:59:41;;;;;;;12.63;4.15;;;;;;;;;;5023201;28;21070;-71
2023/08/23 13:02:07;;;;;;;6.60;3.38;;;;;;;;;;5036666;28;21758;-72
2023/08/23 13:04:33;;;;;;;6.65;3.70;;;;;;;;;;5018803;28;20481;-72
2023/08/23 13:06:59;;;;;;;5.88;3.53;;;;;;;;;;4999133;28;20505;-72
2023/08/23 13:09:25;;;;;;;5.85;3.00;;;;;;;;;;5035389;28;20048;-71
2023/08/23 13:11:51;;;;;;;6.38;2.88;;;;;;;;;;5038452;28;20044;-71
2023/08/23 13:14:18;;;;;;;7.15;3.22;;;;;;;;;;5036872;28;20183;-72
2023/08/23 13:16:44;;;;;;;8.57;3.00;;;;;;;;;;5000749;28;20099;-72
2023/08/23 13:19:10;;;;;;;12.00;2.80;;;;;;;;;;5016541;28;20053;-73
2023/08/23 13:21:36;;;;;;;7.88;2.78;;;;;;;;;;5036094;28;20044;-71
2023/08/23 13:24:02;;;;;;;8.23;3.85;;;;;;;;;;5035553;28;20051;-72
2023/08/23 13:26:28;;;;;;;12.02;3.58;;;;;;;;;;5016917;28;20079;-72
2023/08/23 13:28:54;;;;;;;5.72;2.40;;;;;;;;;;5035952;28;20049;-72
2023/08/23 13:31:23;;;;;;;5.70;2.17;;;;;;;;;;5016716;28;20106;-72
2023/08/23 13:33:49;;;;;;;5.55;2.70;;;;;;;;;;5014921;28;20053;-72
2023/08/23 13:36:15;;;;;;;5.03;2.28;;;;;;;;;;5018062;28;20044;-73
2023/08/23 13:38:41;;;;;;;9.63;2.45;;;;;;;;;;5035394;28;20476;-73
2023/08/23 13:41:07;;;;;;;6.50;2.72;;;;;;;;;;5036084;28;20051;-72
2023/08/23 13:43:33;;;;;;;8.85;3.00;;;;;;;;;;5018496;28;20044;-73
2023/08/23 13:46:00;;;;;;;11.18;2.60;;;;;;;;;;5019665;28;20048;-73
2023/08/23 13:48:26;;;;;;;6.35;2.10;;;;;;;;;;5032647;28;20037;-78
2023/08/23 13:50:52;;;;;;;10.07;2.92;;;;;;;;;;5018770;28;20220;-72
2023/08/23 13:53:18;;;;;;;8.27;2.85;;;;;;;;;;5031301;28;20162;-72
2023/08/23 13:55:47;;;;;;;7.72;2.55;;;;;;;;;;5034785;28;20060;-73
2023/08/23 13:58:13;;;;;;;8.80;2.80;;;;;;;;;;5035304;28;20496;-73
2023/08/23 14:00:39;;;;;;;800.95;90.97;;;;;;;;;;5018564;28;20025;-74
2023/08/23 14:03:05;;;;;;;7.13;3.60;;;;;;;;;;5001506;28;20227;-73
2023/08/23 14:05:31;;;;;;;11.30;3.70;;;;;;;;;;5015023;28;22038;-72
2023/08/23 14:07:57;;;;;;;5.20;2.90;;;;;;;;;;5015539;28;20052;-75
2023/08/23 14:10:23;;;;;;;14.68;2.88;;;;;;;;;;5034495;28;20528;-72
2023/08/23 14:12:49;;;;;;;8.05;2.83;;;;;;;;;;5035179;28;20151;-81
2023/08/23 14:15:15;;;;;;;5.45;2.65;;;;;;;;;;5033425;28;20068;-74
2023/08/23 14:17:42;;;;;;;10.75;2.70;;;;;;;;;;5033692;28;20055;-78
2023/08/23 14:20:08;;;;;;;7.97;2.50;;;;;;;;;;5032513;28;20036;-80
2023/08/23 14:22:34;;;;;;;16.80;2.55;;;;;;;;;;5032104;28;20088;-74